sensor_id;sensor_type;location;lat;lon;timestamp;P1;durP1;ratioP1;P2;durP2;ratioP2
1691;SDS011;843;52.054;8.552;2023-12-20T00:02:05;16.40;;;9.70;;
1691;SDS011;843;52.054;8.552;2023-12-20T00:04:31;16.77;;;9.60;;
1691;SDS011;843;52.054;8.552;2023-12-20T00:06:57;21.70;;;11.00;;
1691;SDS011;843;52.054;8.552;2023-12-20T00:09:24;14.27;;;10.40;;
1691;SDS011;843;52.054;8.552;2023-12-20T00:11:50;13.90;;;8.27;;
1691;SDS011;843;52.054;8.552;2023-12-20T00:14:17;14.07;;;8.40;;
1691;SDS011;843;52.054;8.552;2023-12-20T00:16:44;12.53;;;7.90;;
1691;SDS011;843;52.054;8.552;2023-12-20T00:19:11;12.37;;;6.83;;
1691;SDS011;843;52.054;8.552;2023-12-20T00:21:37;14.47;;;6.50;;
1691;SDS011;843;52.054;8.552;2023-12-20T00:24:04;11.93;;;7.50;;
1691;SDS011;843;52.054;8.552;2023-12-20T00:26:31;11.50;;;6.80;;
1691;SDS011;843;52.054;8.552;2023-12-20T00:28:57;9.27;;;6.50;;
1691;SDS011;843;52.054;8.552;2023-12-20T00:31:23;10.57;;;6.77;;
1691;SDS011;843;52.054;8.552;2023-12-20T00:33:51;13.60;;;6.70;;
1691;SDS011;843;52.054;8.552;2023-12-20T00:36:17;7.73;;;5.70;;
1691;SDS011;843;52.054;8.552;2023-12-20T00:38:44;15.47;;;8.43;;
1691;SDS011;843;52.054;8.552;2023-12-20T00:41:11;10.30;;;6.57;;
1691;SDS011;843;52.054;8.552;2023-12-20T00:43:37;10.23;;;5.40;;
1691;SDS011;843;52.054;8.552;2023-12-20T00:46:03;7.63;;;5.63;;
1691;SDS011;843;52.054;8.552;2023-12-20T00:48:30;8.30;;;4.77;;
1691;SDS011;843;52.054;8.552;2023-12-20T00:50:57;8.10;;;5.57;;
1691;SDS011;843;52.054;8.552;2023-12-20T00:53:24;13.77;;;5.53;;
1691;SDS011;843;52.054;8.552;2023-12-20T00:55:50;8.53;;;5.53;;
1691;SDS011;843;52.054;8.552;2023-12-20T00:58:17;11.03;;;4.60;;
1691;SDS011;843;52.054;8.552;2023-12-20T01:00:43;15.60;;;5.50;;
1691;SDS011;843;52.054;8.552;2023-12-20T01:03:09;12.43;;;6.13;;
1691;SDS011;843;52.054;8.552;2023-12-20T01:05:36;13.30;;;5.80;;
1691;SDS011;843;52.054;8.552;2023-12-20T01:08:04;7.37;;;5.07;;
1691;SDS011;843;52.054;8.552;2023-12-20T01:10:30;13.00;;;5.67;;
1691;SDS011;843;52.054;8.552;2023-12-20T01:12:57;12.27;;;5.93;;
1691;SDS011;843;52.054;8.552;2023-12-20T01:15:22;10.33;;;5.40;;
1691;SDS011;843;52.054;8.552;2023-12-20T01:17:48;6.90;;;4.47;;
1691;SDS011;843;52.054;8.552;2023-12-20T01:20:16;5.70;;;4.37;;
1691;SDS011;843;52.054;8.552;2023-12-20T01:22:45;9.00;;;4.50;;
1691;SDS011;843;52.054;8.552;2023-12-20T01:25:12;6.10;;;4.70;;
1691;SDS011;843;52.054;8.552;2023-12-20T01:27:39;5.93;;;3.90;;
1691;SDS011;843;52.054;8.552;2023-12-20T01:30:06;7.20;;;4.23;;
1691;SDS011;843;52.054;8.552;2023-12-20T01:32:32;10.23;;;5.10;;
1691;SDS011;843;52.054;8.552;2023-12-20T01:34:59;7.83;;;4.33;;
1691;SDS011;843;52.054;8.552;2023-12-20T01:37:24;8.47;;;5.83;;
1691;SDS011;843;52.054;8.552;2023-12-20T01:39:51;7.07;;;4.80;;
1691;SDS011;843;52.054;8.552;2023-12-20T01:42:19;15.03;;;5.10;;
1691;SDS011;843;52.054;8.552;2023-12-20T01:44:47;5.47;;;4.47;;
1691;SDS011;843;52.054;8.552;2023-12-20T01:47:13;8.60;;;4.83;;
1691;SDS011;843;52.054;8.552;2023-12-20T01:49:40;6.80;;;4.27;;
1691;SDS011;843;52.054;8.552;2023-12-20T01:52:06;9.90;;;4.60;;
1691;SDS011;843;52.054;8.552;2023-12-20T01:54:33;6.03;;;3.70;;
1691;SDS011;843;52.054;8.552;2023-12-20T01:57:00;10.40;;;4.50;;
1691;SDS011;843;52.054;8.552;2023-12-20T01:59:28;8.30;;;3.83;;
1691;SDS011;843;52.054;8.552;2023-12-20T02:01:55;4.97;;;3.87;;
1691;SDS011;843;52.054;8.552;2023-12-20T02:04:22;8.50;;;4.40;;
1691;SDS011;843;52.054;8.552;2023-12-20T02:06:48;9.67;;;3.90;;
1691;SDS011;843;52.054;8.552;2023-12-20T02:09:18;4.90;;;3.67;;
1691;SDS011;843;52.054;8.552;2023-12-20T02:11:44;9.73;;;3.90;;
1691;SDS011;843;52.054;8.552;2023-12-20T02:14:11;15.20;;;4.80;;
1691;SDS011;843;52.054;8.552;2023-12-20T02:16:38;7.77;;;5.00;;
1691;SDS011;843;52.054;8.552;2023-12-20T02:19:05;5.90;;;3.90;;
1691;SDS011;843;52.054;8.552;2023-12-20T02:21:36;6.27;;;4.47;;
1691;SDS011;843;52.054;8.552;2023-12-20T02:24:03;11.17;;;3.90;;
1691;SDS011;843;52.054;8.552;2023-12-20T02:26:30;9.50;;;4.00;;
1691;SDS011;843;52.054;8.552;2023-12-20T02:28:57;6.17;;;3.27;;
1691;SDS011;843;52.054;8.552;2023-12-20T02:31:24;5.87;;;4.07;;
1691;SDS011;843;52.054;8.552;2023-12-20T02:33:51;9.40;;;4.20;;
1691;SDS011;843;52.054;8.552;2023-12-20T02:36:17;9.77;;;4.60;;
1691;SDS011;843;52.054;8.552;2023-12-20T02:38:45;5.57;;;3.70;;
1691;SDS011;843;52.054;8.552;2023-12-20T02:41:12;4.00;;;2.93;;
1691;SDS011;843;52.054;8.552;2023-12-20T02:43:38;8.50;;;3.27;;
1691;SDS011;843;52.054;8.552;2023-12-20T02:46:05;11.50;;;4.17;;
1691;SDS011;843;52.054;8.552;2023-12-20T02:48:31;8.40;;;3.87;;
1691;SDS011;843;52.054;8.552;2023-12-20T02:50:57;9.27;;;3.80;;
1691;SDS011;843;52.054;8.552;2023-12-20T02:53:24;9.23;;;4.17;;
1691;SDS011;843;52.054;8.552;2023-12-20T02:55:51;7.73;;;3.93;;
1691;SDS011;843;52.054;8.552;2023-12-20T02:58:18;10.17;;;3.67;;
1691;SDS011;843;52.054;8.552;2023-12-20T03:00:44;8.37;;;4.00;;
1691;SDS011;843;52.054;8.552;2023-12-20T03:03:10;10.33;;;4.43;;
1691;SDS011;843;52.054;8.552;2023-12-20T03:05:37;5.33;;;3.83;;
1691;SDS011;843;52.054;8.552;2023-12-20T03:08:03;13.03;;;5.03;;
1691;SDS011;843;52.054;8.552;2023-12-20T03:10:30;9.87;;;4.30;;
1691;SDS011;843;52.054;8.552;2023-12-20T03:12:58;13.27;;;4.70;;
1691;SDS011;843;52.054;8.552;2023-12-20T03:15:24;11.60;;;4.70;;
1691;SDS011;843;52.054;8.552;2023-12-20T03:17:50;7.83;;;4.43;;
1691;SDS011;843;52.054;8.552;2023-12-20T03:20:17;9.60;;;4.53;;
1691;SDS011;843;52.054;8.552;2023-12-20T03:22:43;7.90;;;5.70;;
1691;SDS011;843;52.054;8.552;2023-12-20T03:25:09;15.47;;;6.00;;
1691;SDS011;843;52.054;8.552;2023-12-20T03:27:36;11.60;;;5.50;;
1691;SDS011;843;52.054;8.552;2023-12-20T03:30:05;10.37;;;5.30;;
1691;SDS011;843;52.054;8.552;2023-12-20T03:32:32;15.60;;;7.53;;
1691;SDS011;843;52.054;8.552;2023-12-20T03:34:58;8.67;;;5.40;;
1691;SDS011;843;52.054;8.552;2023-12-20T03:37:24;12.50;;;5.03;;
1691;SDS011;843;52.054;8.552;2023-12-20T03:39:51;17.70;;;7.03;;
1691;SDS011;843;52.054;8.552;2023-12-20T03:42:17;11.77;;;5.30;;
1691;SDS011;843;52.054;8.552;2023-12-20T03:44:43;15.40;;;5.93;;
1691;SDS011;843;52.054;8.552;2023-12-20T03:47:11;9.87;;;5.73;;
1691;SDS011;843;52.054;8.552;2023-12-20T03:49:38;8.17;;;6.53;;
1691;SDS011;843;52.054;8.552;2023-12-20T03:52:04;9.23;;;5.57;;
1691;SDS011;843;52.054;8.552;2023-12-20T03:54:30;13.10;;;6.90;;
1691;SDS011;843;52.054;8.552;2023-12-20T03:56:57;16.77;;;7.17;;
1691;SDS011;843;52.054;8.552;2023-12-20T03:59:23;13.40;;;7.70;;
1691;SDS011;843;52.054;8.552;2023-12-20T04:01:50;14.60;;;6.80;;
1691;SDS011;843;52.054;8.552;2023-12-20T04:04:17;12.50;;;7.13;;
1691;SDS011;843;52.054;8.552;2023-12-20T04:06:43;13.90;;;6.30;;
1691;SDS011;843;52.054;8.552;2023-12-20T04:09:09;19.50;;;7.10;;
1691;SDS011;843;52.054;8.552;2023-12-20T04:11:36;19.50;;;7.10;;
1691;SDS011;843;52.054;8.552;2023-12-20T04:14:02;16.83;;;6.10;;
1691;SDS011;843;52.054;8.552;2023-12-20T04:16:30;17.10;;;7.33;;
1691;SDS011;843;52.054;8.552;2023-12-20T04:18:56;11.83;;;7.13;;
1691;SDS011;843;52.054;8.552;2023-12-20T04:21:24;10.07;;;6.20;;
1691;SDS011;843;52.054;8.552;2023-12-20T04:23:50;9.17;;;5.87;;
1691;SDS011;843;52.054;8.552;2023-12-20T04:26:16;18.70;;;6.27;;
1691;SDS011;843;52.054;8.552;2023-12-20T04:28:43;12.17;;;6.50;;
1691;SDS011;843;52.054;8.552;2023-12-20T04:31:09;10.73;;;7.30;;
1691;SDS011;843;52.054;8.552;2023-12-20T04:33:36;16.23;;;6.93;;
1691;SDS011;843;52.054;8.552;2023-12-20T04:36:02;12.00;;;7.43;;
1691;SDS011;843;52.054;8.552;2023-12-20T04:38:31;8.40;;;5.30;;
1691;SDS011;843;52.054;8.552;2023-12-20T04:40:57;8.77;;;5.97;;
1691;SDS011;843;52.054;8.552;2023-12-20T04:43:23;9.47;;;6.30;;
1691;SDS011;843;52.054;8.552;2023-12-20T04:45:50;14.63;;;5.70;;
1691;SDS011;843;52.054;8.552;2023-12-20T04:48:16;11.93;;;5.77;;
1691;SDS011;843;52.054;8.552;2023-12-20T04:50:43;12.97;;;5.77;;
1691;SDS011;843;52.054;8.552;2023-12-20T04:53:09;13.30;;;6.30;;
1691;SDS011;843;52.054;8.552;2023-12-20T04:55:37;13.33;;;6.13;;
1691;SDS011;843;52.054;8.552;2023-12-20T04:58:04;7.70;;;5.70;;
1691;SDS011;843;52.054;8.552;2023-12-20T05:00:30;14.83;;;5.20;;
1691;SDS011;843;52.054;8.552;2023-12-20T05:02:57;13.07;;;5.53;;
1691;SDS011;843;52.054;8.552;2023-12-20T05:05:23;10.33;;;5.57;;
1691;SDS011;843;52.054;8.552;2023-12-20T05:07:49;13.70;;;6.87;;
1691;SDS011;843;52.054;8.552;2023-12-20T05:10:16;9.87;;;5.20;;
1691;SDS011;843;52.054;8.552;2023-12-20T05:12:44;15.00;;;6.70;;
1691;SDS011;843;52.054;8.552;2023-12-20T05:15:10;16.73;;;5.63;;
1691;SDS011;843;52.054;8.552;2023-12-20T05:17:36;15.77;;;5.57;;
1691;SDS011;843;52.054;8.552;2023-12-20T05:20:03;12.90;;;5.00;;
1691;SDS011;843;52.054;8.552;2023-12-20T05:22:30;12.37;;;6.37;;
1691;SDS011;843;52.054;8.552;2023-12-20T05:24:56;13.63;;;5.77;;
1691;SDS011;843;52.054;8.552;2023-12-20T05:27:22;13.90;;;5.93;;
1691;SDS011;843;52.054;8.552;2023-12-20T05:29:50;20.07;;;5.33;;
1691;SDS011;843;52.054;8.552;2023-12-20T05:32:16;11.10;;;5.77;;
1691;SDS011;843;52.054;8.552;2023-12-20T05:34:43;11.97;;;5.33;;
1691;SDS011;843;52.054;8.552;2023-12-20T05:37:09;18.00;;;6.33;;
1691;SDS011;843;52.054;8.552;2023-12-20T05:39:36;16.40;;;5.37;;
1691;SDS011;843;52.054;8.552;2023-12-20T05:42:03;19.87;;;7.07;;
1691;SDS011;843;52.054;8.552;2023-12-20T05:44:29;17.43;;;5.53;;
1691;SDS011;843;52.054;8.552;2023-12-20T05:46:57;18.57;;;5.20;;
1691;SDS011;843;52.054;8.552;2023-12-20T05:49:23;8.80;;;4.63;;
1691;SDS011;843;52.054;8.552;2023-12-20T05:51:50;19.27;;;7.00;;
1691;SDS011;843;52.054;8.552;2023-12-20T05:54:16;19.67;;;4.80;;
1691;SDS011;843;52.054;8.552;2023-12-20T05:56:43;9.40;;;5.50;;
1691;SDS011;843;52.054;8.552;2023-12-20T05:59:09;14.83;;;7.17;;
1691;SDS011;843;52.054;8.552;2023-12-20T06:01:35;9.43;;;4.77;;
1691;SDS011;843;52.054;8.552;2023-12-20T06:04:03;18.50;;;5.53;;
1691;SDS011;843;52.054;8.552;2023-12-20T06:06:30;12.67;;;5.50;;
1691;SDS011;843;52.054;8.552;2023-12-20T06:08:56;22.30;;;6.50;;
1691;SDS011;843;52.054;8.552;2023-12-20T06:11:23;15.17;;;5.30;;
1691;SDS011;843;52.054;8.552;2023-12-20T06:13:49;10.37;;;5.50;;
1691;SDS011;843;52.054;8.552;2023-12-20T06:16:17;11.87;;;5.93;;
1691;SDS011;843;52.054;8.552;2023-12-20T06:18:44;11.77;;;5.93;;
1691;SDS011;843;52.054;8.552;2023-12-20T06:21:12;10.37;;;6.20;;
1691;SDS011;843;52.054;8.552;2023-12-20T06:23:39;16.27;;;5.50;;
1691;SDS011;843;52.054;8.552;2023-12-20T06:26:05;13.80;;;7.10;;
1691;SDS011;843;52.054;8.552;2023-12-20T06:28:32;16.73;;;6.33;;
1691;SDS011;843;52.054;8.552;2023-12-20T06:30:58;14.93;;;6.67;;
1691;SDS011;843;52.054;8.552;2023-12-20T06:33:25;12.80;;;6.50;;
1691;SDS011;843;52.054;8.552;2023-12-20T06:35:52;18.53;;;6.43;;
1691;SDS011;843;52.054;8.552;2023-12-20T06:38:20;14.43;;;6.63;;
1691;SDS011;843;52.054;8.552;2023-12-20T06:40:46;14.67;;;5.80;;
1691;SDS011;843;52.054;8.552;2023-12-20T06:43:13;19.50;;;6.63;;
1691;SDS011;843;52.054;8.552;2023-12-20T06:45:39;14.33;;;5.40;;
1691;SDS011;843;52.054;8.552;2023-12-20T06:48:06;18.43;;;7.50;;
1691;SDS011;843;52.054;8.552;2023-12-20T06:50:32;11.07;;;6.20;;
1691;SDS011;843;52.054;8.552;2023-12-20T06:52:59;22.20;;;6.17;;
1691;SDS011;843;52.054;8.552;2023-12-20T06:55:33;13.90;;;7.27;;
1691;SDS011;843;52.054;8.552;2023-12-20T06:58:00;12.83;;;6.37;;
1691;SDS011;843;52.054;8.552;2023-12-20T07:00:26;14.43;;;6.50;;
1691;SDS011;843;52.054;8.552;2023-12-20T07:02:53;15.83;;;7.70;;
1691;SDS011;843;52.054;8.552;2023-12-20T07:05:20;14.20;;;6.33;;
1691;SDS011;843;52.054;8.552;2023-12-20T07:07:46;15.97;;;6.70;;
1691;SDS011;843;52.054;8.552;2023-12-20T07:10:12;10.60;;;6.67;;
1691;SDS011;843;52.054;8.552;2023-12-20T07:12:40;17.17;;;6.27;;
1691;SDS011;843;52.054;8.552;2023-12-20T07:15:07;13.93;;;5.77;;
1691;SDS011;843;52.054;8.552;2023-12-20T07:17:34;16.20;;;7.60;;
1691;SDS011;843;52.054;8.552;2023-12-20T07:20:00;11.40;;;6.80;;
1691;SDS011;843;52.054;8.552;2023-12-20T07:22:28;14.50;;;6.43;;
1691;SDS011;843;52.054;8.552;2023-12-20T07:24:55;17.83;;;7.33;;
1691;SDS011;843;52.054;8.552;2023-12-20T07:27:21;12.53;;;6.10;;
1691;SDS011;843;52.054;8.552;2023-12-20T07:29:49;10.70;;;6.37;;
1691;SDS011;843;52.054;8.552;2023-12-20T07:32:15;14.50;;;6.03;;
1691;SDS011;843;52.054;8.552;2023-12-20T07:34:41;16.70;;;6.40;;
1691;SDS011;843;52.054;8.552;2023-12-20T07:37:08;16.87;;;6.60;;
1691;SDS011;843;52.054;8.552;2023-12-20T07:39:35;12.13;;;6.17;;
1691;SDS011;843;52.054;8.552;2023-12-20T07:42:02;13.93;;;5.97;;
1691;SDS011;843;52.054;8.552;2023-12-20T07:44:28;19.07;;;6.33;;
1691;SDS011;843;52.054;8.552;2023-12-20T07:46:56;14.03;;;5.70;;
1691;SDS011;843;52.054;8.552;2023-12-20T07:49:22;9.30;;;5.40;;
1691;SDS011;843;52.054;8.552;2023-12-20T07:51:49;8.73;;;4.80;;
1691;SDS011;843;52.054;8.552;2023-12-20T07:54:16;12.60;;;5.63;;
1691;SDS011;843;52.054;8.552;2023-12-20T07:56:42;24.80;;;6.13;;
1691;SDS011;843;52.054;8.552;2023-12-20T07:59:08;11.73;;;5.20;;
1691;SDS011;843;52.054;8.552;2023-12-20T08:01:35;11.80;;;5.47;;
1691;SDS011;843;52.054;8.552;2023-12-20T08:04:03;11.33;;;5.10;;
1691;SDS011;843;52.054;8.552;2023-12-20T08:06:29;10.33;;;5.30;;
1691;SDS011;843;52.054;8.552;2023-12-20T08:08:55;10.33;;;5.23;;
1691;SDS011;843;52.054;8.552;2023-12-20T08:11:22;15.03;;;5.40;;
1691;SDS011;843;52.054;8.552;2023-12-20T08:13:48;16.93;;;5.80;;
1691;SDS011;843;52.054;8.552;2023-12-20T08:16:15;12.80;;;6.20;;
1691;SDS011;843;52.054;8.552;2023-12-20T08:18:42;11.77;;;5.97;;
1691;SDS011;843;52.054;8.552;2023-12-20T08:21:10;11.67;;;5.27;;
1691;SDS011;843;52.054;8.552;2023-12-20T08:23:37;16.60;;;6.37;;
1691;SDS011;843;52.054;8.552;2023-12-20T08:26:04;16.57;;;5.90;;
1691;SDS011;843;52.054;8.552;2023-12-20T08:28:30;15.17;;;6.00;;
1691;SDS011;843;52.054;8.552;2023-12-20T08:30:57;18.13;;;5.70;;
1691;SDS011;843;52.054;8.552;2023-12-20T08:33:23;12.97;;;5.37;;
1691;SDS011;843;52.054;8.552;2023-12-20T08:35:50;17.93;;;4.90;;
1691;SDS011;843;52.054;8.552;2023-12-20T08:38:18;13.00;;;5.20;;
1691;SDS011;843;52.054;8.552;2023-12-20T08:40:44;10.77;;;5.83;;
1691;SDS011;843;52.054;8.552;2023-12-20T08:43:10;9.70;;;5.57;;
1691;SDS011;843;52.054;8.552;2023-12-20T08:45:37;13.60;;;7.33;;
1691;SDS011;843;52.054;8.552;2023-12-20T08:48:04;13.60;;;5.63;;
1691;SDS011;843;52.054;8.552;2023-12-20T08:50:31;16.80;;;6.00;;
1691;SDS011;843;52.054;8.552;2023-12-20T08:52:57;13.80;;;5.20;;
1691;SDS011;843;52.054;8.552;2023-12-20T08:55:25;16.43;;;5.10;;
1691;SDS011;843;52.054;8.552;2023-12-20T08:57:52;22.97;;;7.33;;
1691;SDS011;843;52.054;8.552;2023-12-20T09:00:18;9.33;;;5.33;;
1691;SDS011;843;52.054;8.552;2023-12-20T09:02:46;15.57;;;6.67;;
1691;SDS011;843;52.054;8.552;2023-12-20T09:05:12;15.03;;;5.50;;
1691;SDS011;843;52.054;8.552;2023-12-20T09:07:38;11.10;;;5.83;;
1691;SDS011;843;52.054;8.552;2023-12-20T09:10:05;14.07;;;5.87;;
1691;SDS011;843;52.054;8.552;2023-12-20T09:12:33;15.60;;;6.90;;
1691;SDS011;843;52.054;8.552;2023-12-20T09:14:59;11.80;;;6.27;;
1691;SDS011;843;52.054;8.552;2023-12-20T09:17:27;13.33;;;6.13;;
1691;SDS011;843;52.054;8.552;2023-12-20T09:19:54;20.27;;;6.50;;
1691;SDS011;843;52.054;8.552;2023-12-20T09:22:20;28.57;;;7.50;;
1691;SDS011;843;52.054;8.552;2023-12-20T09:24:46;15.40;;;6.47;;
1691;SDS011;843;52.054;8.552;2023-12-20T09:27:13;19.13;;;6.87;;
1691;SDS011;843;52.054;8.552;2023-12-20T09:29:41;17.90;;;7.80;;
1691;SDS011;843;52.054;8.552;2023-12-20T09:32:08;13.87;;;7.30;;
1691;SDS011;843;52.054;8.552;2023-12-20T09:34:34;12.40;;;6.97;;
1691;SDS011;843;52.054;8.552;2023-12-20T09:37:02;19.30;;;6.93;;
1691;SDS011;843;52.054;8.552;2023-12-20T09:39:29;22.60;;;6.80;;
1691;SDS011;843;52.054;8.552;2023-12-20T09:41:59;14.50;;;6.70;;
1691;SDS011;843;52.054;8.552;2023-12-20T09:44:26;15.97;;;7.10;;
1691;SDS011;843;52.054;8.552;2023-12-20T09:46:55;15.77;;;7.57;;
1691;SDS011;843;52.054;8.552;2023-12-20T09:49:21;14.37;;;7.13;;
1691;SDS011;843;52.054;8.552;2023-12-20T09:51:48;17.13;;;6.63;;
1691;SDS011;843;52.054;8.552;2023-12-20T09:54:16;13.93;;;6.80;;
1691;SDS011;843;52.054;8.552;2023-12-20T09:56:43;27.23;;;8.97;;
1691;SDS011;843;52.054;8.552;2023-12-20T09:59:10;14.33;;;6.90;;
1691;SDS011;843;52.054;8.552;2023-12-20T10:01:36;19.07;;;6.47;;
1691;SDS011;843;52.054;8.552;2023-12-20T10:04:06;14.03;;;7.37;;
1691;SDS011;843;52.054;8.552;2023-12-20T10:06:34;14.00;;;6.27;;
1691;SDS011;843;52.054;8.552;2023-12-20T10:09:00;13.70;;;7.20;;
1691;SDS011;843;52.054;8.552;2023-12-20T10:11:27;10.07;;;6.57;;
1691;SDS011;843;52.054;8.552;2023-12-20T10:13:58;21.57;;;7.37;;
1691;SDS011;843;52.054;8.552;2023-12-20T10:16:25;18.77;;;6.83;;
1691;SDS011;843;52.054;8.552;2023-12-20T10:18:52;13.30;;;7.50;;
1691;SDS011;843;52.054;8.552;2023-12-20T10:21:20;12.43;;;6.03;;
1691;SDS011;843;52.054;8.552;2023-12-20T10:23:46;12.67;;;5.77;;
1691;SDS011;843;52.054;8.552;2023-12-20T10:26:18;15.40;;;5.93;;
1691;SDS011;843;52.054;8.552;2023-12-20T10:28:45;17.83;;;6.40;;
1691;SDS011;843;52.054;8.552;2023-12-20T10:31:15;17.80;;;6.53;;
1691;SDS011;843;52.054;8.552;2023-12-20T10:33:51;15.57;;;5.60;;
1691;SDS011;843;52.054;8.552;2023-12-20T10:36:19;17.00;;;7.30;;
1691;SDS011;843;52.054;8.552;2023-12-20T10:38:46;11.57;;;5.97;;
1691;SDS011;843;52.054;8.552;2023-12-20T10:41:15;17.23;;;5.50;;
1691;SDS011;843;52.054;8.552;2023-12-20T10:43:42;9.77;;;5.53;;
1691;SDS011;843;52.054;8.552;2023-12-20T10:46:09;8.93;;;4.87;;
1691;SDS011;843;52.054;8.552;2023-12-20T10:48:35;8.93;;;5.00;;
1691;SDS011;843;52.054;8.552;2023-12-20T10:51:02;9.03;;;5.23;;
1691;SDS011;843;52.054;8.552;2023-12-20T10:53:31;14.27;;;5.43;;
1691;SDS011;843;52.054;8.552;2023-12-20T10:55:58;15.47;;;5.47;;
1691;SDS011;843;52.054;8.552;2023-12-20T10:58:26;12.10;;;3.77;;
1691;SDS011;843;52.054;8.552;2023-12-20T11:00:54;9.97;;;4.07;;
1691;SDS011;843;52.054;8.552;2023-12-20T11:03:26;9.60;;;4.13;;
1691;SDS011;843;52.054;8.552;2023-12-20T11:05:55;8.70;;;4.00;;
1691;SDS011;843;52.054;8.552;2023-12-20T11:08:26;8.37;;;4.60;;
1691;SDS011;843;52.054;8.552;2023-12-20T11:10:56;7.40;;;4.27;;
1691;SDS011;843;52.054;8.552;2023-12-20T11:13:27;11.27;;;3.70;;
1691;SDS011;843;52.054;8.552;2023-12-20T11:15:55;9.87;;;3.97;;
1691;SDS011;843;52.054;8.552;2023-12-20T11:18:25;10.70;;;4.10;;
1691;SDS011;843;52.054;8.552;2023-12-20T11:20:54;6.70;;;4.13;;
1691;SDS011;843;52.054;8.552;2023-12-20T11:23:20;10.53;;;5.20;;
1691;SDS011;843;52.054;8.552;2023-12-20T11:25:48;9.87;;;4.40;;
1691;SDS011;843;52.054;8.552;2023-12-20T11:28:16;22.67;;;4.57;;
1691;SDS011;843;52.054;8.552;2023-12-20T11:30:46;16.33;;;4.30;;
1691;SDS011;843;52.054;8.552;2023-12-20T11:33:13;7.37;;;3.20;;
1691;SDS011;843;52.054;8.552;2023-12-20T11:35:40;12.77;;;4.17;;
1691;SDS011;843;52.054;8.552;2023-12-20T11:38:07;7.63;;;4.00;;
1691;SDS011;843;52.054;8.552;2023-12-20T11:40:34;11.20;;;3.90;;
1691;SDS011;843;52.054;8.552;2023-12-20T11:43:01;12.70;;;3.93;;
1691;SDS011;843;52.054;8.552;2023-12-20T11:45:29;16.43;;;4.10;;
1691;SDS011;843;52.054;8.552;2023-12-20T11:47:56;11.30;;;4.23;;
1691;SDS011;843;52.054;8.552;2023-12-20T11:50:23;12.13;;;4.17;;
1691;SDS011;843;52.054;8.552;2023-12-20T11:52:49;6.03;;;3.77;;
1691;SDS011;843;52.054;8.552;2023-12-20T11:55:16;8.63;;;4.10;;
1691;SDS011;843;52.054;8.552;2023-12-20T11:57:43;9.90;;;4.13;;
1691;SDS011;843;52.054;8.552;2023-12-20T12:00:10;10.40;;;4.43;;
1691;SDS011;843;52.054;8.552;2023-12-20T12:02:38;9.50;;;3.87;;
1691;SDS011;843;52.054;8.552;2023-12-20T12:05:04;12.40;;;4.43;;
1691;SDS011;843;52.054;8.552;2023-12-20T12:07:31;9.10;;;4.00;;
1691;SDS011;843;52.054;8.552;2023-12-20T12:09:57;7.93;;;3.60;;
1691;SDS011;843;52.054;8.552;2023-12-20T12:12:24;8.53;;;3.63;;
1691;SDS011;843;52.054;8.552;2023-12-20T12:14:52;7.53;;;3.50;;
1691;SDS011;843;52.054;8.552;2023-12-20T12:17:18;16.93;;;4.03;;
1691;SDS011;843;52.054;8.552;2023-12-20T12:19:46;6.00;;;3.53;;
1691;SDS011;843;52.054;8.552;2023-12-20T12:22:13;9.07;;;4.30;;
1691;SDS011;843;52.054;8.552;2023-12-20T12:24:40;5.90;;;3.10;;
1691;SDS011;843;52.054;8.552;2023-12-20T12:27:07;7.50;;;3.90;;
1691;SDS011;843;52.054;8.552;2023-12-20T12:29:33;11.03;;;4.03;;
1691;SDS011;843;52.054;8.552;2023-12-20T12:32:00;9.50;;;3.50;;
1691;SDS011;843;52.054;8.552;2023-12-20T12:34:27;18.10;;;4.07;;
1691;SDS011;843;52.054;8.552;2023-12-20T12:36:55;8.50;;;4.17;;
1691;SDS011;843;52.054;8.552;2023-12-20T12:39:22;9.50;;;4.10;;
1691;SDS011;843;52.054;8.552;2023-12-20T12:41:49;7.67;;;3.70;;
1691;SDS011;843;52.054;8.552;2023-12-20T12:44:15;9.00;;;3.87;;
1691;SDS011;843;52.054;8.552;2023-12-20T12:46:42;5.57;;;3.50;;
1691;SDS011;843;52.054;8.552;2023-12-20T12:49:09;11.10;;;4.33;;
1691;SDS011;843;52.054;8.552;2023-12-20T12:51:35;11.97;;;3.73;;
1691;SDS011;843;52.054;8.552;2023-12-20T12:54:03;17.33;;;4.70;;
1691;SDS011;843;52.054;8.552;2023-12-20T12:56:30;12.10;;;5.17;;
1691;SDS011;843;52.054;8.552;2023-12-20T12:58:56;11.23;;;3.87;;
1691;SDS011;843;52.054;8.552;2023-12-20T13:01:23;7.77;;;3.10;;
1691;SDS011;843;52.054;8.552;2023-12-20T13:03:49;14.37;;;4.40;;
1691;SDS011;843;52.054;8.552;2023-12-20T13:06:16;8.80;;;3.50;;
1691;SDS011;843;52.054;8.552;2023-12-20T13:08:42;13.60;;;4.20;;
1691;SDS011;843;52.054;8.552;2023-12-20T13:11:11;11.03;;;3.60;;
1691;SDS011;843;52.054;8.552;2023-12-20T13:13:38;11.10;;;3.70;;
1691;SDS011;843;52.054;8.552;2023-12-20T13:16:04;4.53;;;3.00;;
1691;SDS011;843;52.054;8.552;2023-12-20T13:18:31;9.50;;;2.20;;
1691;SDS011;843;52.054;8.552;2023-12-20T13:20:57;4.90;;;1.80;;
1691;SDS011;843;52.054;8.552;2023-12-20T13:23:24;5.70;;;2.10;;
1691;SDS011;843;52.054;8.552;2023-12-20T13:25:50;1.50;;;1.40;;
1691;SDS011;843;52.054;8.552;2023-12-20T13:28:18;5.03;;;1.50;;
1691;SDS011;843;52.054;8.552;2023-12-20T13:30:44;5.50;;;1.63;;
1691;SDS011;843;52.054;8.552;2023-12-20T13:33:11;2.73;;;1.40;;
1691;SDS011;843;52.054;8.552;2023-12-20T13:35:37;4.33;;;1.87;;
1691;SDS011;843;52.054;8.552;2023-12-20T13:38:04;4.47;;;1.70;;
1691;SDS011;843;52.054;8.552;2023-12-20T13:40:31;10.07;;;2.30;;
1691;SDS011;843;52.054;8.552;2023-12-20T13:42:57;9.50;;;2.57;;
1691;SDS011;843;52.054;8.552;2023-12-20T13:45:25;3.07;;;1.60;;
1691;SDS011;843;52.054;8.552;2023-12-20T13:47:51;6.07;;;2.10;;
1691;SDS011;843;52.054;8.552;2023-12-20T13:50:18;5.07;;;2.40;;
1691;SDS011;843;52.054;8.552;2023-12-20T13:52:44;3.33;;;1.77;;
1691;SDS011;843;52.054;8.552;2023-12-20T13:55:11;8.13;;;2.47;;
1691;SDS011;843;52.054;8.552;2023-12-20T13:57:38;5.23;;;2.10;;
1691;SDS011;843;52.054;8.552;2023-12-20T14:00:05;7.87;;;2.20;;
1691;SDS011;843;52.054;8.552;2023-12-20T14:02:38;2.93;;;1.80;;
1691;SDS011;843;52.054;8.552;2023-12-20T14:05:05;7.53;;;1.93;;
1691;SDS011;843;52.054;8.552;2023-12-20T14:07:32;2.30;;;1.73;;
1691;SDS011;843;52.054;8.552;2023-12-20T14:09:58;4.97;;;1.97;;
1691;SDS011;843;52.054;8.552;2023-12-20T14:12:25;7.40;;;1.97;;
1691;SDS011;843;52.054;8.552;2023-12-20T14:14:53;6.27;;;2.10;;
1691;SDS011;843;52.054;8.552;2023-12-20T14:17:20;6.00;;;1.90;;
1691;SDS011;843;52.054;8.552;2023-12-20T14:19:48;1.90;;;1.70;;
1691;SDS011;843;52.054;8.552;2023-12-20T14:22:16;6.60;;;1.97;;
1691;SDS011;843;52.054;8.552;2023-12-20T14:24:44;3.30;;;1.80;;
1691;SDS011;843;52.054;8.552;2023-12-20T14:27:10;4.80;;;1.73;;
1691;SDS011;843;52.054;8.552;2023-12-20T14:29:37;4.10;;;2.30;;
1691;SDS011;843;52.054;8.552;2023-12-20T14:32:04;5.33;;;2.07;;
1691;SDS011;843;52.054;8.552;2023-12-20T14:34:31;5.83;;;2.20;;
1691;SDS011;843;52.054;8.552;2023-12-20T14:36:59;3.97;;;1.80;;
1691;SDS011;843;52.054;8.552;2023-12-20T14:39:25;4.90;;;1.90;;
1691;SDS011;843;52.054;8.552;2023-12-20T14:41:51;6.07;;;2.80;;
1691;SDS011;843;52.054;8.552;2023-12-20T14:44:19;5.43;;;1.90;;
1691;SDS011;843;52.054;8.552;2023-12-20T14:46:46;2.80;;;1.53;;
1691;SDS011;843;52.054;8.552;2023-12-20T14:49:13;6.17;;;1.60;;
1691;SDS011;843;52.054;8.552;2023-12-20T14:51:39;3.50;;;1.80;;
1691;SDS011;843;52.054;8.552;2023-12-20T14:54:10;5.27;;;1.90;;
1691;SDS011;843;52.054;8.552;2023-12-20T14:56:37;3.97;;;2.00;;
1691;SDS011;843;52.054;8.552;2023-12-20T14:59:03;5.07;;;2.00;;
1691;SDS011;843;52.054;8.552;2023-12-20T15:01:30;4.53;;;1.97;;
1691;SDS011;843;52.054;8.552;2023-12-20T15:03:56;4.73;;;2.23;;
1691;SDS011;843;52.054;8.552;2023-12-20T15:06:22;3.37;;;2.07;;
1691;SDS011;843;52.054;8.552;2023-12-20T15:08:50;3.60;;;2.07;;
1691;SDS011;843;52.054;8.552;2023-12-20T15:11:18;6.93;;;1.80;;
1691;SDS011;843;52.054;8.552;2023-12-20T15:13:45;4.70;;;1.90;;
1691;SDS011;843;52.054;8.552;2023-12-20T15:16:13;5.60;;;1.80;;
1691;SDS011;843;52.054;8.552;2023-12-20T15:18:39;7.10;;;2.10;;
1691;SDS011;843;52.054;8.552;2023-12-20T15:21:06;3.00;;;1.63;;